createdAt,value
2019-01-20T00:09:32.971Z,-4.2
2019-01-20T00:19:47.946Z,-4.3
2019-01-20T00:30:01.532Z,-4.4
2019-01-20T00:40:16.420Z,-5.1
2019-01-20T00:50:31.664Z,-4.1
2019-01-20T01:00:46.603Z,-4.2
2019-01-20T01:11:00.624Z,-4.2
2019-01-20T01:21:14.204Z,-4.2
2019-01-20T01:31:28.788Z,-4.4
2019-01-20T01:41:42.496Z,-5.1
2019-01-20T01:51:56.154Z,-5.5
2019-01-20T02:02:11.489Z,-6
2019-01-20T02:12:26.660Z,-5.5
2019-01-20T02:22:40.459Z,-4.8
2019-01-20T02:32:54.283Z,-5.2
2019-01-20T02:43:08.984Z,-5.9
2019-01-20T02:53:22.619Z,-6.1
2019-01-20T03:03:36.248Z,-6.3
2019-01-20T03:13:50.996Z,-6.4
2019-01-20T03:24:05.410Z,-6
2019-01-20T03:34:19.381Z,-6.1
2019-01-20T03:44:34.857Z,-5.3
2019-01-20T03:54:49.545Z,-4.8
2019-01-20T04:05:04.138Z,-5.3
2019-01-20T04:15:17.710Z,-6.1
2019-01-20T04:25:31.504Z,-5.8
2019-01-20T04:35:46.845Z,-6.2
2019-01-20T04:46:01.025Z,-6.6
2019-01-20T04:56:15.168Z,-6.8
2019-01-20T05:06:29.000Z,-6.3
2019-01-20T05:16:43.264Z,-6.5
2019-01-20T05:26:57.017Z,-5.7
2019-01-20T05:37:10.850Z,-5.7
2019-01-20T05:47:24.554Z,-6.1
2019-01-20T05:57:38.741Z,-6.1
2019-01-20T06:07:53.940Z,-5.8
2019-01-20T06:18:09.339Z,-5.6
2019-01-20T06:28:28.031Z,-6
2019-01-20T06:38:38.325Z,-6.6
2019-01-20T06:48:52.822Z,-7.4
2019-01-20T06:59:07.999Z,-6.8
2019-01-20T07:09:22.616Z,-7.2
2019-01-20T07:19:36.266Z,-7.6
2019-01-20T07:29:50.421Z,-7
2019-01-20T07:40:04.209Z,-6.7
2019-01-20T07:50:17.934Z,-6.7
2019-01-20T08:00:31.904Z,-7
2019-01-20T08:10:47.002Z,-6.1
2019-01-20T08:21:00.800Z,-5.6
2019-01-20T08:31:15.678Z,-4.8
2019-01-20T08:41:30.031Z,-4.8
2019-01-20T08:51:43.655Z,-3.4
2019-01-20T09:01:58.625Z,-2.3
2019-01-20T09:12:14.070Z,-1.4
2019-01-20T09:22:28.737Z,-1.1
2019-01-20T09:32:43.067Z,-1.3
2019-01-20T09:42:58.445Z,-0.5
2019-01-20T09:53:14.021Z,0
2019-01-20T10:03:28.231Z,0.8
2019-01-20T10:13:42.883Z,0.8
2019-01-20T10:23:58.112Z,1.3
2019-01-20T10:34:12.224Z,2.1
2019-01-20T10:44:27.603Z,2.8
2019-01-20T10:54:43.190Z,2.8
2019-01-20T11:04:57.916Z,3
2019-01-20T11:15:11.707Z,3.5
2019-01-20T11:25:26.690Z,3.3
2019-01-20T11:35:40.866Z,3.7
2019-01-20T11:45:55.143Z,3.3
2019-01-20T11:56:09.472Z,3
2019-01-20T12:06:23.466Z,3.5
2019-01-20T12:16:37.698Z,3.2
2019-01-20T12:26:53.355Z,3.5
2019-01-20T12:37:07.818Z,3.5
2019-01-20T12:47:22.529Z,3.8
2019-01-20T12:57:37.282Z,4.1
2019-01-20T13:07:52.947Z,3.8
2019-01-20T13:18:08.214Z,3.8
2019-01-20T13:28:22.879Z,3.7
2019-01-20T13:38:37.150Z,3.6
2019-01-20T13:48:52.574Z,3.1
2019-01-20T13:59:07.350Z,2.8
2019-01-20T14:09:21.265Z,2.9
2019-01-20T14:19:35.352Z,2.9
2019-01-20T14:29:49.076Z,3.1
2019-01-20T14:40:04.231Z,2.8
2019-01-20T14:50:19.550Z,2.6
2019-01-20T15:00:33.293Z,2.6
2019-01-20T15:10:47.304Z,2.3
2019-01-20T15:21:01.326Z,1.8
2019-01-20T15:31:15.185Z,1.7
2019-01-20T15:41:29.829Z,1.3
2019-01-20T15:51:44.158Z,0.1
2019-01-20T16:01:58.860Z,0
2019-01-20T16:12:12.524Z,-0.5
2019-01-20T16:22:27.321Z,-1.3
2019-01-20T16:32:42.740Z,-0.7
2019-01-20T16:42:56.637Z,-0.6
2019-01-20T16:53:10.955Z,-0.6
2019-01-20T17:03:25.248Z,-0.2
2019-01-20T17:13:39.959Z,-0.3
2019-01-20T17:23:55.381Z,-0.5
2019-01-20T17:34:09.317Z,-1.2
2019-01-20T17:44:23.277Z,-2.3
2019-01-20T17:54:37.021Z,-3
2019-01-20T18:04:50.977Z,-3.2
2019-01-20T18:15:04.796Z,-2.9
2019-01-20T18:25:19.940Z,-2.8
2019-01-20T18:35:34.979Z,-2.7
2019-01-20T18:45:49.685Z,-2.7
2019-01-20T18:56:03.901Z,-2.7
2019-01-20T19:06:18.689Z,-2.7
2019-01-20T19:16:32.511Z,-3.3
2019-01-20T19:26:47.652Z,-3
2019-01-20T19:37:01.667Z,-3.6
2019-01-20T19:47:16.374Z,-3.7
2019-01-20T19:57:30.238Z,-3.7
2019-01-20T20:07:43.962Z,-3.6
2019-01-20T20:17:58.705Z,-3.3
2019-01-20T20:28:12.853Z,-4
2019-01-20T20:38:27.881Z,-4
2019-01-20T20:48:42.969Z,-5
2019-01-20T20:58:57.382Z,-5.3
2019-01-20T21:09:12.340Z,-4.9
2019-01-20T21:19:26.309Z,-4.9
2019-01-20T21:29:39.902Z,-4.3
2019-01-20T21:39:54.538Z,-3.8
2019-01-20T21:50:09.504Z,-4.9
2019-01-20T22:00:23.629Z,-5
2019-01-20T22:10:38.473Z,-5.8
2019-01-20T22:20:53.681Z,-5.5
2019-01-20T22:31:07.941Z,-5.3
2019-01-20T22:41:21.976Z,-5.7
2019-01-20T22:51:36.326Z,-5.2
2019-01-20T23:01:49.943Z,-5.2
2019-01-20T23:12:03.769Z,-5.5
2019-01-20T23:22:17.376Z,-6.1
2019-01-20T23:32:31.207Z,-5.5
2019-01-20T23:42:45.547Z,-6.2
2019-01-20T23:52:59.841Z,-6
